Time;durP1;ratioP1;P1;durP2;ratioP2;P2;SDS_P1;SDS_P2;PMS_P1;PMS_P2;Temp;Humidity;BMP_temperature;BMP_pressure;BME280_temperature;BME280_humidity;BME280_pressure;Samples;Min_cycle;Max_cycle;Signal;HPM_P1;HPM_P2
2023/03/12 14:15:05;;;;;;;6.47;4.78;;;;;;;8.28;53.20;99218.06;5050440;28;20298;-74
2023/03/12 14:17:33;;;;;;;7.07;4.18;;;;;;;8.27;52.34;99224.16;5051611;28;20796;-74
2023/03/12 14:20:10;;;;;;;10.27;5.80;;;;;;;8.17;53.46;99212.47;5051879;28;20485;-74
2023/03/12 14:22:38;;;;;;;9.02;4.95;;;;;;;8.03;53.95;99183.72;5051868;28;20032;-75
2023/03/12 14:25:25;;;;;;;8.73;5.68;;;;;;;8.21;53.99;99208.84;5051921;28;20029;-74
2023/03/12 14:27:51;;;;;;;8.13;5.13;;;;;;;8.07;54.29;99180.94;5052153;28;20120;-75
2023/03/12 14:30:48;;;;;;;8.38;4.35;;;;;;;8.17;54.07;99205.53;5052074;28;20104;-74
2023/03/12 14:33:14;;;;;;;6.85;5.05;;;;;;;8.00;54.57;99192.47;5051513;28;20099;-74
2023/03/12 14:36:03;;;;;;;12.68;7.82;;;;;;;8.08;54.11;99210.28;5051540;28;20559;-74
2023/03/12 14:38:43;;;;;;;9.52;6.43;;;;;;;8.00;53.92;99214.06;5029158;28;20048;-74
2023/03/12 14:41:37;;;;;;;12.13;7.82;;;;;;;8.02;54.85;99213.16;5029505;28;20222;-75
2023/03/12 14:44:20;;;;;;;14.48;9.65;;;;;;;7.82;54.58;99191.50;5027171;28;20054;-74
2023/03/12 14:46:56;;;;;;;11.88;8.45;;;;;;;7.79;55.36;99177.84;5028816;28;20040;-75
2023/03/12 14:49:22;;;;;;;10.40;7.32;;;;;;;7.94;55.52;99198.78;5029181;28;20124;-74
2023/03/12 14:51:48;;;;;;;11.05;8.63;;;;;;;7.81;55.20;99170.84;5028940;28;20120;-74
2023/03/12 14:54:18;;;;;;;7.68;5.07;;;;;;;7.78;55.68;99166.63;5028882;28;20057;-74
2023/03/12 14:56:44;;;;;;;17.45;14.25;;;;;;;7.92;55.50;99187.63;5028791;28;20037;-74
2023/03/12 14:59:26;;;;;;;13.75;10.00;;;;;;;7.72;56.09;99161.72;5029025;28;20108;-74
2023/03/12 15:01:58;;;;;;;16.58;14.30;;;;;;;7.74;55.88;99178.03;5029083;28;20048;-74
2023/03/12 15:04:24;;;;;;;11.65;7.43;;;;;;;7.72;56.06;99175.53;5028779;28;20141;-74
2023/03/12 15:06:57;;;;;;;10.95;7.53;;;;;;;7.77;55.88;99185.69;5028754;28;20033;-75
2023/03/12 15:09:31;;;;;;;10.18;9.13;;;;;;;7.66;56.40;99180.94;5028971;28;20048;-74
2023/03/12 15:12:00;;;;;;;9.55;8.52;;;;;;;7.67;56.68;99174.88;5028821;28;20100;-74
2023/03/12 15:14:33;;;;;;;13.65;12.30;;;;;;;7.68;56.30;99179.16;5029763;28;20489;-74
2023/03/12 15:16:59;;;;;;;7.47;6.28;;;;;;;7.54;55.88;99152.13;5050487;28;20052;-74
2023/03/12 15:19:31;;;;;;;20.40;18.17;;;;;;;7.65;56.44;99175.84;5050730;28;20100;-74
2023/03/12 15:21:58;;;;;;;23.92;21.05;;;;;;;7.60;56.38;99173.44;5051905;28;20021;-74
2023/03/12 15:24:25;;;;;;;82.32;73.28;;;;;;;7.57;56.67;99170.13;5054911;28;20112;-74
2023/03/12 15:26:50;;;;;;;91.07;50.38;;;;;;;7.48;56.46;99158.41;5054726;28;20520;-74
2023/03/12 15:29:27;;;;;;;55.33;32.95;;;;;;;7.46;56.72;99165.41;5055016;28;20071;-74
2023/03/12 15:32:14;;;;;;;31.98;23.45;;;;;;;7.46;57.11;99157.66;5054615;28;20036;-74
2023/03/12 15:34:43;;;;;;;39.28;32.75;;;;;;;7.42;57.40;99151.75;5054661;28;20047;-74
2023/03/12 15:37:36;;;;;;;31.25;19.95;;;;;;;7.39;57.55;99153.63;5054573;28;20503;-74
2023/03/12 15:40:25;;;;;;;19.95;12.25;;;;;;;7.32;57.11;99160.78;5054466;28;20550;-74
2023/03/12 15:42:56;;;;;;;26.00;16.33;;;;;;;7.30;57.77;99156.59;5054409;28;20132;-74
2023/03/12 15:45:33;;;;;;;19.87;12.57;;;;;;;7.22;58.05;99146.53;5054776;28;20086;-74
2023/03/12 15:47:59;;;;;;;31.13;19.48;;;;;;;7.17;58.73;99133.78;5054580;28;20025;-74
2023/03/12 15:50:39;;;;;;;23.73;13.40;;;;;;;6.98;58.57;99101.75;5054302;28;20465;-74
2023/03/12 15:53:27;;;;;;;24.95;12.85;;;;;;;7.11;58.91;99123.66;5054656;28;20025;-74
2023/03/12 15:56:16;;;;;;;18.00;9.68;;;;;;;7.03;59.55;99112.75;5054201;28;20033;-74
2023/03/12 15:58:42;;;;;;;17.42;9.07;;;;;;;6.92;59.81;99078.72;5031849;28;20041;-74
2023/03/12 16:01:10;;;;;;;15.85;8.60;;;;;;;7.05;59.57;99110.97;5031921;28;20081;-74
2023/03/12 16:03:35;;;;;;;21.02;12.43;;;;;;;6.70;60.02;99055.44;5031878;28;20077;-74
2023/03/12 16:06:01;;;;;;;18.83;12.05;;;;;;;6.99;60.33;99104.31;5031794;28;20476;-74
2023/03/12 16:08:36;;;;;;;15.60;10.80;;;;;;;6.97;60.62;99121.63;5032278;28;20025;-74
2023/03/12 16:11:02;;;;;;;11.82;8.48;;;;;;;6.74;60.17;99117.38;5031838;28;20034;-74
2023/03/12 16:13:30;;;;;;;13.90;8.45;;;;;;;6.87;59.58;99147.94;5031696;28;20036;-74
2023/03/12 16:15:57;;;;;;;12.80;10.68;;;;;;;6.84;59.79;99130.78;5031151;28;20124;-74
2023/03/12 16:18:24;;;;;;;21.40;13.48;;;;;;;6.88;59.62;99123.75;5031480;28;20491;-74
2023/03/12 16:20:51;;;;;;;34.45;17.45;;;;;;;6.75;59.41;99126.00;5030865;28;20076;-74
2023/03/12 16:23:18;;;;;;;24.52;12.20;;;;;;;6.57;58.56;99114.59;5031480;28;20056;-74
2023/03/12 16:25:50;;;;;;;17.45;10.15;;;;;;;6.62;58.90;99123.03;5031320;28;20034;-74
2023/03/12 16:28:18;;;;;;;15.27;8.77;;;;;;;6.47;57.10;99110.69;5031290;28;20120;-74
2023/03/12 16:30:44;;;;;;;11.20;7.75;;;;;;;6.29;57.41;99099.31;5031347;28;20026;-74
2023/03/12 16:33:15;;;;;;;18.42;9.68;;;;;;;6.19;56.96;99074.69;5031096;28;20091;-75
2023/03/12 16:35:41;;;;;;;20.08;10.80;;;;;;;6.38;57.38;99116.22;5032001;28;20049;-75
2023/03/12 16:38:09;;;;;;;71.00;26.50;;;;;;;6.15;56.38;99112.75;5033417;28;20029;-74
2023/03/12 16:40:38;;;;;;;44.92;18.25;;;;;;;6.11;57.50;99093.09;5033360;28;20102;-75
2023/03/12 16:43:12;;;;;;;31.60;18.35;;;;;;;6.29;57.44;99130.34;5033681;28;20067;-74
2023/03/12 16:45:44;;;;;;;41.53;23.25;;;;;;;6.28;57.04;99126.06;5033512;28;20485;-75
2023/03/12 16:48:15;;;;;;;30.90;16.80;;;;;;;6.25;57.17;99119.25;5033301;28;20014;-74
2023/03/12 16:50:49;;;;;;;63.13;24.15;;;;;;;6.15;57.74;99120.50;5033257;28;20053;-74
2023/03/12 16:53:17;;;;;;;40.70;15.20;;;;;;;5.97;57.53;99113.41;5033456;28;20489;-74
2023/03/12 16:55:51;;;;;;;55.08;21.38;;;;;;;5.95;58.38;99122.97;5033389;28;20052;-75
2023/03/12 16:58:20;;;;;;;37.30;15.65;;;;;;;6.02;57.96;99134.75;5033137;28;20061;-74
2023/03/12 17:00:46;;;;;;;35.33;17.05;;;;;;;6.07;57.74;99134.59;5033076;28;20448;-74
2023/03/12 17:03:33;;;;;;;43.20;19.98;;;;;;;5.75;57.79;99096.06;5033292;28;20021;-75
2023/03/12 17:05:59;;;;;;;46.47;21.30;;;;;;;6.00;57.75;99141.75;5033266;28;20026;-74
2023/03/12 17:08:24;;;;;;;51.28;24.55;;;;;;;5.84;57.53;99119.91;5033435;28;20095;-75
2023/03/12 17:10:49;;;;;;;40.95;21.23;;;;;;;5.73;58.43;99091.84;5033073;28;20034;-74
2023/03/12 17:13:21;;;;;;;62.80;26.77;;;;;;;5.92;58.18;99136.00;5033438;28;20033;-75
2023/03/12 17:15:47;;;;;;;60.20;25.88;;;;;;;5.88;58.35;99129.22;5042778;28;20041;-75
2023/03/12 17:18:12;;;;;;;69.93;35.63;;;;;;;5.73;58.37;99113.38;5052484;28;20031;-75
2023/03/12 17:20:38;;;;;;;77.72;36.47;;;;;;;5.42;58.28;99080.00;5052809;28;20377;-75
2023/03/12 17:23:04;;;;;;;76.20;34.58;;;;;;;5.71;58.03;99122.06;5052714;28;20431;-74
2023/03/12 17:25:32;;;;;;;51.88;25.35;;;;;;;5.84;58.10;99128.50;5052469;28;20525;-75
2023/03/12 17:27:58;;;;;;;61.95;31.42;;;;;;;5.81;58.26;99115.66;5052613;28;20025;-75
2023/03/12 17:30:27;;;;;;;132.00;59.90;;;;;;;5.55;58.58;99111.41;5052308;28;20058;-74
2023/03/12 17:33:00;;;;;;;134.20;64.63;;;;;;;5.62;58.28;99117.22;5052415;28;20483;-75
2023/03/12 17:35:25;;;;;;;205.77;87.50;;;;;;;5.77;58.65;99132.19;5052852;28;20115;-74
2023/03/12 17:37:51;;;;;;;240.52;91.50;;;;;;;5.65;58.74;99124.88;5051922;28;20545;-74
2023/03/12 17:40:16;;;;;;;159.27;59.28;;;;;;;5.46;58.79;99104.84;5052023;28;20024;-75
2023/03/12 17:42:42;;;;;;;110.53;41.25;;;;;;;5.68;59.14;99142.84;5052196;28;20031;-74
2023/03/12 17:45:08;;;;;;;62.78;28.55;;;;;;;5.65;59.49;99130.06;5051904;28;20477;-74
2023/03/12 17:47:35;;;;;;;52.35;23.33;;;;;;;5.78;59.15;99143.38;5052168;28;20068;-74
2023/03/12 17:50:01;;;;;;;39.17;20.15;;;;;;;5.76;59.40;99138.25;5051708;28;20039;-74
2023/03/12 17:52:28;;;;;;;26.40;15.93;;;;;;;5.83;59.64;99133.72;5052347;28;20025;-74
2023/03/12 17:54:54;;;;;;;60.78;24.85;;;;;;;5.87;59.71;99130.97;5052016;28;20091;-74
2023/03/12 17:57:19;;;;;;;34.88;18.27;;;;;;;5.90;60.59;99120.53;5052113;28;20484;-74
2023/03/12 17:59:45;;;;;;;24.73;15.48;;;;;;;5.88;60.58;99109.38;5052127;28;20177;-74
2023/03/12 18:02:13;;;;;;;24.35;13.63;;;;;;;5.83;60.95;99105.28;5052035;28;20017;-75
2023/03/12 18:04:41;;;;;;;25.88;14.90;;;;;;;5.84;61.21;99101.81;5052023;28;20489;-74
2023/03/12 18:07:07;;;;;;;14.65;8.60;;;;;;;5.81;61.98;99100.16;5051960;28;20551;-75
2023/03/12 18:09:35;;;;;;;12.15;8.32;;;;;;;5.72;61.89;99085.00;5052010;28;20056;-75
2023/03/12 18:12:02;;;;;;;12.18;7.07;;;;;;;5.78;62.34;99091.69;5051488;28;20539;-74
2023/03/12 18:14:31;;;;;;;14.45;8.05;;;;;;;5.78;62.79;99083.94;5051833;28;20109;-74
2023/03/12 18:16:58;;;;;;;16.70;9.65;;;;;;;5.72;62.92;99087.56;5051193;28;20500;-75
2023/03/12 18:19:25;;;;;;;11.88;8.10;;;;;;;5.78;63.30;99104.63;5051552;28;20112;-75
2023/03/12 18:21:54;;;;;;;16.02;9.70;;;;;;;5.75;63.89;99100.41;5051544;28;20032;-75
2023/03/12 18:24:19;;;;;;;13.68;8.43;;;;;;;5.60;63.83;99075.09;5051345;28;20028;-75
2023/03/12 18:26:45;;;;;;;18.65;13.27;;;;;;;5.60;64.41;99098.34;5051173;28;20060;-75
2023/03/12 18:29:11;;;;;;;18.50;11.85;;;;;;;5.66;64.59;99113.66;5051802;28;20401;-74
2023/03/12 18:31:36;;;;;;;35.42;19.17;;;;;;;5.44;65.08;99082.56;5051617;28;20567;-75
2023/03/12 18:34:02;;;;;;;34.97;20.92;;;;;;;5.67;64.78;99113.59;5051005;28;20108;-75
2023/03/12 18:36:27;;;;;;;21.73;15.13;;;;;;;5.69;65.14;99123.88;5041574;28;20029;-75
2023/03/12 18:38:52;;;;;;;12.93;8.40;;;;;;;5.61;64.59;99108.66;5051378;28;20032;-75
2023/03/12 18:41:19;;;;;;;11.50;6.82;;;;;;;5.69;64.61;99114.38;5051487;28;20112;-75
2023/03/12 18:43:44;;;;;;;11.10;7.18;;;;;;;5.55;64.35;99077.84;5051268;28;20032;-74
2023/03/12 18:46:11;;;;;;;13.75;8.32;;;;;;;5.53;64.51;99076.22;5051571;28;20074;-75
2023/03/12 18:48:37;;;;;;;20.20;11.18;;;;;;;5.49;65.07;99066.00;5051496;28;20556;-75
2023/03/12 18:51:02;;;;;;;19.65;10.15;;;;;;;5.66;65.45;99095.56;5051394;28;20086;-74
2023/03/12 18:53:28;;;;;;;24.92;12.65;;;;;;;5.65;65.50;99080.97;5050778;28;20025;-74
2023/03/12 18:55:56;;;;;;;14.57;8.90;;;;;;;5.66;66.18;99083.47;5051159;28;20028;-75
2023/03/12 18:58:26;;;;;;;17.55;10.40;;;;;;;5.69;66.39;99074.78;5053214;28;20107;-75
2023/03/12 19:00:53;;;;;;;18.45;10.73;;;;;;;5.72;66.42;99077.25;5055582;28;20155;-74
2023/03/12 19:03:19;;;;;;;19.02;10.93;;;;;;;5.61;66.25;99069.06;5055611;28;20033;-74
2023/03/12 19:05:45;;;;;;;24.73;12.18;;;;;;;5.66;66.64;99059.38;5055534;28;20036;-75
2023/03/12 19:08:10;;;;;;;28.48;12.52;;;;;;;5.56;67.12;99040.78;5055073;28;20025;-74
2023/03/12 19:10:36;;;;;;;48.42;19.70;;;;;;;5.65;67.41;99052.53;5055272;28;20029;-75
2023/03/12 19:13:01;;;;;;;30.75;13.48;;;;;;;5.74;67.15;99067.72;5055260;28;20100;-75
2023/03/12 19:15:26;;;;;;;36.10;16.00;;;;;;;5.61;67.31;99031.16;5055195;28;20060;-74
2023/03/12 19:17:52;;;;;;;38.92;16.77;;;;;;;5.70;67.14;99045.47;5055039;28;20024;-74
2023/03/12 19:20:20;;;;;;;52.28;29.73;;;;;;;5.64;66.83;99048.25;5054823;28;20032;-74
2023/03/12 19:22:48;;;;;;;100.53;50.40;;;;;;;5.50;66.81;99052.19;5055210;28;20025;-74
2023/03/12 19:25:16;;;;;;;119.65;64.90;;;;;;;5.46;67.31;99050.59;5055232;28;20496;-74
2023/03/12 19:27:43;;;;;;;133.07;73.97;;;;;;;5.46;67.29;99047.19;5055006;28;20036;-74
2023/03/12 19:30:09;;;;;;;67.57;35.47;;;;;;;5.35;67.18;99046.69;5054866;28;20025;-74
2023/03/12 19:32:34;;;;;;;44.97;23.55;;;;;;;5.11;67.76;99026.03;5054966;28;20021;-74
2023/03/12 19:35:00;;;;;;;46.30;25.90;;;;;;;5.32;67.66;99037.34;5054848;28;20025;-74
2023/03/12 19:37:25;;;;;;;25.83;14.45;;;;;;;5.20;68.03;99033.44;5054806;28;20021;-74
2023/03/12 19:39:51;;;;;;;30.80;18.45;;;;;;;5.18;67.80;99036.97;5054476;28;20111;-72
2023/03/12 19:42:16;;;;;;;43.53;21.92;;;;;;;5.09;67.61;99043.28;5054540;28;20025;-72
2023/03/12 19:44:42;;;;;;;85.20;37.38;;;;;;;5.28;67.32;99042.66;5054639;28;20029;-72
2023/03/12 19:47:08;;;;;;;70.28;31.88;;;;;;;5.26;67.31;99029.78;5054360;28;20032;-72
2023/03/12 19:49:34;;;;;;;56.20;26.60;;;;;;;5.42;67.22;99049.03;5054621;28;20057;-72
2023/03/12 19:52:01;;;;;;;28.23;14.73;;;;;;;5.36;66.79;99046.66;5054360;28;20036;-72
2023/03/12 19:54:27;;;;;;;34.03;16.10;;;;;;;5.06;67.17;99014.19;5054482;28;20033;-72
2023/03/12 19:56:52;;;;;;;32.60;17.23;;;;;;;5.21;67.66;99017.03;5054132;28;20082;-72
2023/03/12 19:59:19;;;;;;;38.17;20.95;;;;;;;5.26;67.53;99038.38;5054758;28;20412;-72
2023/03/12 20:01:44;;;;;;;23.77;13.05;;;;;;;5.24;67.56;99031.59;5054435;28;20112;-72
2023/03/12 20:04:11;;;;;;;23.98;12.63;;;;;;;5.32;67.34;99027.00;5053956;28;20511;-72
2023/03/12 20:06:37;;;;;;;37.22;17.50;;;;;;;5.34;67.06;99029.53;5054312;28;20104;-72
2023/03/12 20:09:04;;;;;;;21.10;12.20;;;;;;;5.30;67.96;99018.47;5051618;28;20040;-72
2023/03/12 20:11:34;;;;;;;17.88;10.02;;;;;;;5.41;69.91;99043.91;5054182;28;20508;-72
2023/03/12 20:14:02;;;;;;;19.83;10.45;;;;;;;5.39;71.54;99050.88;5054068;28;20271;-72
2023/03/12 20:16:27;;;;;;;17.05;10.73;;;;;;;5.30;72.24;99041.69;5054079;28;20049;-72
2023/03/12 20:18:53;;;;;;;24.25;14.02;;;;;;;5.36;72.52;99053.56;5054278;28;20017;-72
2023/03/12 20:21:19;;;;;;;21.00;12.40;;;;;;;5.42;73.26;99043.84;5053933;28;20060;-72
2023/03/12 20:23:49;;;;;;;27.40;13.43;;;;;;;5.41;73.76;99039.59;5054174;28;20067;-72
2023/03/12 20:26:38;;;;;;;26.48;14.43;;;;;;;5.42;74.56;99025.78;5051417;28;20224;-72
2023/03/12 20:29:06;;;;;;;18.17;11.88;;;;;;;5.50;74.56;99041.00;5051206;28;20044;-73
2023/03/12 20:31:32;;;;;;;17.83;11.45;;;;;;;5.40;74.95;99022.44;5051332;28;20049;-72
2023/03/12 20:33:58;;;;;;;16.63;10.45;;;;;;;5.50;74.63;99036.69;5050978;28;20065;-73
2023/03/12 20:36:24;;;;;;;40.28;17.25;;;;;;;5.49;74.68;99026.41;5051046;28;20128;-72
2023/03/12 20:38:50;;;;;;;40.15;17.27;;;;;;;5.41;74.82;99013.78;5051112;28;20055;-72
2023/03/12 20:41:16;;;;;;;19.80;10.23;;;;;;;5.53;74.92;99035.75;5051350;28;20036;-72
2023/03/12 20:43:45;;;;;;;13.20;7.68;;;;;;;5.55;75.66;99033.94;5051306;28;20086;-73
2023/03/12 20:46:13;;;;;;;13.85;8.30;;;;;;;5.50;77.04;99025.50;5050440;28;20116;-72
2023/03/12 20:48:39;;;;;;;16.83;8.93;;;;;;;5.47;77.21;99023.03;5050770;28;20048;-73
2023/03/12 20:51:04;;;;;;;24.92;10.48;;;;;;;5.28;77.94;98998.78;5050910;28;20068;-72
2023/03/12 20:53:29;;;;;;;15.00;9.02;;;;;;;5.41;78.38;99021.53;5051336;28;20052;-72
2023/03/12 20:55:56;;;;;;;17.40;9.45;;;;;;;5.42;78.79;99025.78;5051060;28;20677;-72
2023/03/12 20:58:22;;;;;;;23.35;11.20;;;;;;;5.43;79.20;99026.63;5051163;28;20142;-72
2023/03/12 21:00:48;;;;;;;28.33;11.50;;;;;;;5.24;79.28;99001.47;5051151;28;20072;-72
2023/03/12 21:03:13;;;;;;;17.75;8.80;;;;;;;5.40;79.82;99019.00;5050876;28;20409;-72
2023/03/12 21:05:39;;;;;;;12.88;8.27;;;;;;;5.30;80.92;99009.88;5051031;28;20033;-72
2023/03/12 21:08:05;;;;;;;10.23;7.50;;;;;;;5.34;81.62;99014.88;5050767;28;20048;-72
2023/03/12 21:10:34;;;;;;;15.65;9.23;;;;;;;5.23;82.21;98997.19;5051223;28;20044;-72
2023/03/12 21:13:00;;;;;;;24.55;11.77;;;;;;;5.35;82.86;99019.16;5050650;28;20045;-73
2023/03/12 21:15:25;;;;;;;15.82;8.98;;;;;;;5.16;83.42;98981.97;5050699;28;20059;-72
2023/03/12 21:17:50;;;;;;;16.23;8.77;;;;;;;5.27;83.88;99016.00;5050810;28;20036;-72
2023/03/12 21:20:16;;;;;;;10.65;6.80;;;;;;;5.33;84.31;99018.38;5050205;28;20505;-72
2023/03/12 21:22:42;;;;;;;12.63;7.20;;;;;;;5.18;85.09;99003.41;5050754;28;20108;-72
2023/03/12 21:25:09;;;;;;;15.15;8.20;;;;;;;5.16;85.73;98984.56;5050389;28;20056;-72
2023/03/12 21:27:35;;;;;;;14.00;8.18;;;;;;;5.32;86.28;99008.94;5050623;28;20028;-72
2023/03/12 21:30:00;;;;;;;11.32;7.32;;;;;;;5.17;86.26;98986.22;5050411;28;20495;-72
2023/03/12 21:32:26;;;;;;;12.77;8.40;;;;;;;5.18;86.57;98981.03;5050545;28;20037;-72
2023/03/12 21:34:51;;;;;;;14.38;7.25;;;;;;;5.34;86.94;99011.44;5050456;28;20186;-72
2023/03/12 21:37:17;;;;;;;16.50;8.68;;;;;;;5.13;87.77;98988.06;5052532;28;20037;-72
2023/03/12 21:39:42;;;;;;;14.30;8.70;;;;;;;5.26;88.30;98999.66;5052721;28;20104;-74
2023/03/12 21:42:08;;;;;;;11.60;8.05;;;;;;;5.16;88.59;98994.88;5052651;28;20128;-72
2023/03/12 21:44:35;;;;;;;14.07;8.90;;;;;;;5.15;88.30;98968.22;5053016;28;20037;-72
2023/03/12 21:47:01;;;;;;;18.48;10.95;;;;;;;5.18;88.37;98981.03;5052452;28;20441;-72
2023/03/12 21:49:26;;;;;;;20.00;10.68;;;;;;;5.27;88.79;98992.78;5052622;28;20423;-72
2023/03/12 21:51:52;;;;;;;18.40;12.00;;;;;;;5.28;88.77;98985.88;5052745;28;20079;-72
2023/03/12 21:54:17;;;;;;;21.52;12.63;;;;;;;5.15;88.80;98973.41;5051164;28;20052;-72
2023/03/12 21:56:42;;;;;;;21.80;12.52;;;;;;;5.23;88.81;98984.28;5052548;28;20060;-72
2023/03/12 21:59:09;;;;;;;16.95;11.30;;;;;;;5.16;88.90;98963.91;5052431;28;20060;-72
2023/03/12 22:01:34;;;;;;;30.67;16.38;;;;;;;5.18;88.95;98959.50;5052453;28;20025;-72
2023/03/12 22:04:01;;;;;;;48.65;20.15;;;;;;;5.18;89.12;98975.00;5052374;28;20369;-72
2023/03/12 22:06:26;;;;;;;39.50;17.52;;;;;;;5.30;89.24;98981.47;5052547;28;20036;-72
2023/03/12 22:08:51;;;;;;;29.60;17.27;;;;;;;5.20;89.98;98968.06;5052464;28;20025;-72
2023/03/12 22:11:17;;;;;;;29.13;16.70;;;;;;;5.22;90.25;98967.13;5052183;28;20029;-72
2023/03/12 22:13:43;;;;;;;113.90;54.17;;;;;;;5.05;89.90;98940.19;5052510;28;20029;-72
2023/03/12 22:16:11;;;;;;;97.95;45.60;;;;;;;4.96;90.57;98949.13;5052052;28;20084;-72
2023/03/12 22:18:38;;;;;;;48.80;23.98;;;;;;;5.13;90.20;98982.06;5052280;28;20025;-72
2023/03/12 22:21:04;;;;;;;27.00;15.00;;;;;;;5.08;90.50;98963.34;5051914;28;20052;-72
2023/03/12 22:23:30;;;;;;;33.25;18.40;;;;;;;5.02;90.71;98961.81;5052006;28;20072;-72
2023/03/12 22:25:59;;;;;;;32.97;19.17;;;;;;;5.21;90.55;98977.47;5032200;28;20124;-72
2023/03/12 22:28:25;;;;;;;23.02;13.05;;;;;;;5.04;90.59;98964.34;5032088;28;20362;-72
2023/03/12 22:30:56;;;;;;;20.63;12.18;;;;;;;5.03;90.55;98948.00;5032282;28;20041;-72
2023/03/12 22:33:21;;;;;;;28.95;16.65;;;;;;;5.21;90.90;98957.66;5031493;28;20025;-72
2023/03/12 22:35:47;;;;;;;26.25;17.38;;;;;;;5.10;90.58;98927.97;5032210;28;20029;-73
2023/03/12 22:38:13;;;;;;;55.38;29.17;;;;;;;5.22;90.62;98949.06;5031848;28;20025;-73
2023/03/12 22:40:39;;;;;;;41.47;21.77;;;;;;;4.99;90.71;98913.72;5031989;28;20086;-73
2023/03/12 22:43:05;;;;;;;37.35;19.27;;;;;;;5.22;90.68;98946.47;5031544;28;20112;-72
2023/03/12 22:45:31;;;;;;;76.95;32.05;;;;;;;5.26;90.83;98947.19;5032326;28;20155;-72
2023/03/12 22:47:56;;;;;;;74.03;30.63;;;;;;;5.11;90.60;98922.78;5032019;28;20478;-72
2023/03/12 22:50:22;;;;;;;60.35;24.65;;;;;;;5.10;90.51;98912.47;5031719;28;20057;-72
2023/03/12 22:52:47;;;;;;;76.47;30.92;;;;;;;5.22;90.39;98936.16;5031892;28;20028;-72
2023/03/12 22:55:13;;;;;;;90.32;38.78;;;;;;;5.17;90.34;98932.88;5031616;28;20040;-73
2023/03/12 22:57:38;;;;;;;67.65;30.90;;;;;;;5.38;90.41;98945.91;5031612;28;20124;-72
2023/03/12 23:00:11;;;;;;;53.80;27.20;;;;;;;5.13;90.23;98897.72;5031742;28;20105;-72
2023/03/12 23:02:37;;;;;;;41.45;22.70;;;;;;;5.29;90.33;98925.56;5029580;28;20034;-73
2023/03/12 23:05:03;;;;;;;34.63;19.98;;;;;;;5.38;90.17;98938.16;5031624;28;20022;-72
2023/03/12 23:07:29;;;;;;;30.50;18.15;;;;;;;5.37;89.77;98924.41;5031891;28;20033;-73
2023/03/12 23:09:54;;;;;;;26.80;15.88;;;;;;;5.40;89.97;98936.38;5031835;28;20037;-72
2023/03/12 23:12:19;;;;;;;28.35;16.35;;;;;;;5.25;90.62;98906.78;5031509;28;20022;-72
2023/03/12 23:14:45;;;;;;;30.38;17.02;;;;;;;5.19;90.23;98907.00;5031633;28;20032;-73
2023/03/12 23:17:10;;;;;;;52.70;26.77;;;;;;;5.32;90.28;98913.41;5031471;28;20120;-72
2023/03/12 23:19:35;;;;;;;48.08;22.40;;;;;;;5.09;90.07;98875.50;5031680;28;20424;-72
2023/03/12 23:22:01;;;;;;;50.42;23.52;;;;;;;5.41;90.55;98915.63;5031418;28;20025;-72
2023/03/12 23:24:29;;;;;;;29.90;16.25;;;;;;;5.24;90.58;98903.34;5031579;28;20044;-73
2023/03/12 23:26:55;;;;;;;30.38;15.50;;;;;;;5.37;90.47;98897.72;5031488;28;20385;-72
2023/03/12 23:29:21;;;;;;;23.50;13.27;;;;;;;5.29;89.82;98885.09;5031286;28;20603;-72
2023/03/12 23:31:46;;;;;;;21.38;12.60;;;;;;;5.43;90.24;98903.50;5031663;28;20052;-73
2023/03/12 23:34:12;;;;;;;21.73;13.40;;;;;;;5.40;89.78;98897.63;5031690;28;20025;-72
2023/03/12 23:36:37;;;;;;;34.60;19.08;;;;;;;5.38;89.76;98891.66;5031432;28;20037;-72
2023/03/12 23:39:02;;;;;;;38.65;20.27;;;;;;;5.49;89.70;98897.28;5031229;28;20022;-72
2023/03/12 23:41:28;;;;;;;61.28;26.75;;;;;;;5.44;89.77;98906.94;5031362;28;20041;-72
2023/03/12 23:43:55;;;;;;;46.88;22.05;;;;;;;5.25;89.55;98871.47;5033683;28;20477;-72
2023/03/12 23:46:20;;;;;;;36.38;16.65;;;;;;;5.53;89.28;98903.19;5035034;28;20563;-72
2023/03/12 23:48:46;;;;;;;36.38;17.25;;;;;;;5.64;89.18;98913.91;5035139;28;20033;-73
2023/03/12 23:51:15;;;;;;;30.75;16.92;;;;;;;5.66;88.80;98915.56;5034853;28;20072;-72
2023/03/12 23:53:42;;;;;;;41.20;19.83;;;;;;;5.59;89.27;98901.19;5034973;28;20071;-72
2023/03/12 23:56:10;;;;;;;66.10;28.20;;;;;;;5.68;89.03;98913.75;5034685;28;20033;-72
2023/03/12 23:58:36;;;;;;;95.30;39.70;;;;;;;5.54;88.84;98887.59;5034963;28;20036;-72
